Terminal Aerodrome Forecast
Issued by NWS Pittsburgh, PA

Current Version | Previous Version | Graphics & Text | Print | Product List | Glossary On
Versions: 1 2 3 4 5 6 7 8 9 10 11 12 13 14 15 16 17 18 19 20 21 22 23 24 25 26 27 28 29 30 31 32 33 34 35
195
FTUS41 KPBZ 171139
TAFPIT
TAF
KPIT 171139Z 1712/1818 16005KT 3/4SM -RA BR SCT003 BKN025
      WS020/20035KT
      TEMPO 1712/1713 BKN003
     FM171700 20009KT 5SM -SHRA OVC010 WS020/20035KT
     FM172100 24010G18KT P6SM -SHRA OVC015
     FM180200 25008KT P6SM VCSH OVC008=

USA.gov is the U.S. government's official web portal to all federal, state and local government web resources and services.